createdAt,value
2018-06-27T00:00:52.452Z,0.00
2018-06-27T00:01:52.447Z,0.00
2018-06-27T00:02:52.446Z,0.00
2018-06-27T00:03:52.555Z,0.00
2018-06-27T00:04:52.485Z,0.00
2018-06-27T00:05:52.491Z,0.00
2018-06-27T00:06:52.494Z,0.00
2018-06-27T00:07:52.549Z,0.00
2018-06-27T00:08:53.491Z,0.00
2018-06-27T00:09:52.587Z,0.00
2018-06-27T00:10:52.547Z,0.00
2018-06-27T00:11:52.567Z,0.00
2018-06-27T00:12:52.587Z,0.00
2018-06-27T00:13:52.595Z,0.00
2018-06-27T00:14:52.672Z,0.00
2018-06-27T00:15:52.691Z,0.00
2018-06-27T00:16:52.635Z,0.00
2018-06-27T00:17:52.659Z,0.00
2018-06-27T00:18:52.636Z,0.00
2018-06-27T00:19:52.645Z,0.00
2018-06-27T00:20:52.646Z,0.00
2018-06-27T00:21:52.677Z,0.00
2018-06-27T00:22:52.707Z,0.00
2018-06-27T00:23:52.736Z,0.00
2018-06-27T00:24:52.712Z,0.00
2018-06-27T00:25:52.721Z,0.00
2018-06-27T00:26:52.742Z,0.00
2018-06-27T00:27:52.728Z,0.00
2018-06-27T00:28:52.844Z,0.00
2018-06-27T00:29:52.759Z,0.00
2018-06-27T00:30:52.780Z,0.00
2018-06-27T00:31:52.862Z,0.00
2018-06-27T00:32:52.789Z,0.00
2018-06-27T00:33:52.886Z,0.00
2018-06-27T00:34:52.835Z,0.00
2018-06-27T00:35:52.820Z,0.00
2018-06-27T00:36:52.839Z,0.00
2018-06-27T00:37:52.877Z,0.00
2018-06-27T00:38:52.914Z,0.00
2018-06-27T00:39:52.868Z,0.00
2018-06-27T00:40:52.870Z,0.00
2018-06-27T00:41:52.885Z,0.00
2018-06-27T00:42:52.900Z,0.00
2018-06-27T00:43:52.955Z,0.00
2018-06-27T00:44:52.969Z,0.00
2018-06-27T00:45:52.950Z,0.00
2018-06-27T00:46:52.945Z,0.00
2018-06-27T00:47:52.967Z,0.00
2018-06-27T00:48:53.012Z,0.00
2018-06-27T00:49:53.024Z,0.00
2018-06-27T00:50:53.004Z,0.00
2018-06-27T00:51:53.025Z,0.00
2018-06-27T00:52:53.026Z,0.00
2018-06-27T00:53:53.032Z,0.00
2018-06-27T00:54:53.081Z,0.00
2018-06-27T00:55:53.131Z,0.00
2018-06-27T00:56:53.164Z,0.00
2018-06-27T00:57:53.069Z,0.00
2018-06-27T00:58:53.092Z,0.00
2018-06-27T00:59:53.101Z,0.00
2018-06-27T01:00:53.117Z,0.00
2018-06-27T01:01:53.121Z,0.00
2018-06-27T01:02:53.177Z,0.00
2018-06-27T01:03:53.150Z,0.00
2018-06-27T01:04:53.149Z,0.00
2018-06-27T01:05:53.275Z,0.00
2018-06-27T01:06:53.210Z,0.00
2018-06-27T01:07:53.191Z,0.00
2018-06-27T01:08:53.276Z,0.00
2018-06-27T01:09:53.218Z,0.00
2018-06-27T01:10:53.290Z,0.00
2018-06-27T01:11:53.263Z,0.00
2018-06-27T01:12:53.503Z,0.00
2018-06-27T01:13:53.302Z,0.00
2018-06-27T01:14:53.366Z,0.00
2018-06-27T01:15:53.309Z,0.00
2018-06-27T01:16:53.296Z,0.00
2018-06-27T01:17:53.435Z,0.00
2018-06-27T01:18:53.345Z,0.00
2018-06-27T01:19:53.321Z,0.00
2018-06-27T01:20:53.378Z,0.00
2018-06-27T01:21:53.362Z,0.00
2018-06-27T01:22:53.354Z,0.00
2018-06-27T01:23:53.362Z,0.00
2018-06-27T01:24:53.390Z,0.00
2018-06-27T01:25:53.457Z,0.00
2018-06-27T01:26:53.439Z,0.00
2018-06-27T01:27:53.418Z,0.00
2018-06-27T01:28:53.429Z,0.00
2018-06-27T01:29:53.432Z,0.00
2018-06-27T01:30:53.441Z,0.00
2018-06-27T01:31:53.486Z,0.00
2018-06-27T01:32:53.491Z,0.00
2018-06-27T01:33:53.626Z,0.00
2018-06-27T01:34:53.512Z,0.00
2018-06-27T01:35:53.514Z,0.00
2018-06-27T01:36:53.544Z,0.00
2018-06-27T01:37:53.585Z,0.00
2018-06-27T01:38:53.547Z,0.00
2018-06-27T01:39:53.572Z,0.00
2018-06-27T01:40:53.568Z,0.00
2018-06-27T01:41:53.609Z,0.00
2018-06-27T01:42:53.581Z,0.00
2018-06-27T01:43:53.623Z,0.00
2018-06-27T01:44:53.640Z,0.00
2018-06-27T01:45:53.634Z,0.00
2018-06-27T01:46:53.627Z,0.00
2018-06-27T01:47:53.648Z,0.00
2018-06-27T01:48:53.694Z,0.00
2018-06-27T01:49:53.670Z,0.00
2018-06-27T01:50:53.678Z,0.00
2018-06-27T01:51:53.691Z,0.00
2018-06-27T01:52:53.726Z,0.00
2018-06-27T01:53:53.716Z,0.00
2018-06-27T01:54:53.737Z,0.00
2018-06-27T01:55:53.774Z,0.00
2018-06-27T01:56:53.757Z,0.00
2018-06-27T01:57:53.758Z,0.00
2018-06-27T01:58:53.768Z,0.00
2018-06-27T01:59:53.795Z,0.00
2018-06-27T02:00:53.833Z,0.00
2018-06-27T02:01:53.809Z,0.00
2018-06-27T02:02:53.815Z,0.00
2018-06-27T02:03:53.846Z,0.00
2018-06-27T02:04:53.826Z,0.00
2018-06-27T02:05:53.914Z,4.00
2018-06-27T02:06:53.862Z,4.00
2018-06-27T02:07:53.863Z,0.00
2018-06-27T02:08:53.874Z,0.00
2018-06-27T02:09:53.902Z,4.00
2018-06-27T02:10:54.009Z,0.00
2018-06-27T02:11:53.960Z,4.00
2018-06-27T02:12:53.943Z,4.00
2018-06-27T02:13:53.944Z,4.00
2018-06-27T02:14:53.954Z,4.00
2018-06-27T02:15:53.955Z,4.00
2018-06-27T02:16:54.002Z,4.00
2018-06-27T02:17:53.977Z,8.00
2018-06-27T02:18:53.998Z,4.00
2018-06-27T02:19:53.995Z,8.00
2018-06-27T02:20:54.011Z,8.00
2018-06-27T02:21:54.058Z,8.00
2018-06-27T02:22:54.038Z,8.00
2018-06-27T02:23:54.065Z,8.00
2018-06-27T02:24:54.050Z,12.00
2018-06-27T02:25:54.058Z,16.00
2018-06-27T02:26:54.109Z,16.00
2018-06-27T02:27:54.105Z,16.00
2018-06-27T02:28:54.110Z,20.00
2018-06-27T02:29:54.119Z,20.00
2018-06-27T02:30:54.116Z,24.00
2018-06-27T02:31:54.179Z,28.00
2018-06-27T02:32:54.152Z,28.00
2018-06-27T02:33:54.163Z,28.00
2018-06-27T02:34:54.205Z,36.00
2018-06-27T02:35:54.209Z,40.00
2018-06-27T02:36:54.189Z,44.00
2018-06-27T02:37:54.209Z,48.00
2018-06-27T02:38:54.211Z,52.00
2018-06-27T02:39:54.224Z,56.00
2018-06-27T02:40:54.286Z,64.00
2018-06-27T02:41:54.257Z,68.00
2018-06-27T02:42:54.279Z,72.00
2018-06-27T02:43:54.298Z,80.00
2018-06-27T02:44:54.274Z,84.00
2018-06-27T02:45:54.334Z,96.00
2018-06-27T02:46:54.357Z,100.00
2018-06-27T02:47:54.306Z,108.00
2018-06-27T02:48:54.326Z,116.00
2018-06-27T02:49:54.419Z,128.00
2018-06-27T02:50:54.362Z,132.00
2018-06-27T02:51:54.387Z,144.00
2018-06-27T02:52:54.429Z,156.00
2018-06-27T02:53:54.377Z,172.00
2018-06-27T02:54:54.397Z,180.00
2018-06-27T02:55:54.421Z,192.00
2018-06-27T02:56:54.458Z,204.00
2018-06-27T02:57:54.464Z,212.00
2018-06-27T02:58:54.439Z,216.00
2018-06-27T02:59:54.460Z,228.00
2018-06-27T03:00:54.474Z,232.00
2018-06-27T03:01:54.477Z,248.00
2018-06-27T03:02:54.515Z,260.00
2018-06-27T03:03:54.570Z,276.00
2018-06-27T03:04:54.506Z,300.00
2018-06-27T03:05:54.528Z,316.00
2018-06-27T03:06:54.530Z,328.00
2018-06-27T03:07:54.548Z,352.00
2018-06-27T03:08:54.596Z,368.00
2018-06-27T03:09:54.561Z,396.00
2018-06-27T03:10:54.581Z,420.00
2018-06-27T03:11:54.590Z,440.00
2018-06-27T03:12:54.590Z,460.00
2018-06-27T03:13:54.647Z,488.00
2018-06-27T03:14:54.639Z,536.00
2018-06-27T03:15:54.639Z,584.00
2018-06-27T03:16:54.635Z,652.00
2018-06-27T03:17:54.654Z,744.00
2018-06-27T03:18:54.715Z,824.00
2018-06-27T03:19:54.674Z,888.00
2018-06-27T03:20:54.706Z,956.00
2018-06-27T03:21:54.725Z,1016.00
2018-06-27T03:22:54.698Z,1064.00
2018-06-27T03:23:54.762Z,1104.00
2018-06-27T03:24:54.730Z,1100.00
2018-06-27T03:25:54.893Z,1120.00
2018-06-27T03:26:54.743Z,1116.00
2018-06-27T03:27:54.767Z,1052.00
2018-06-27T03:28:54.833Z,924.00
2018-06-27T03:29:54.835Z,780.00
2018-06-27T03:30:54.792Z,780.00
2018-06-27T03:31:54.818Z,868.00
2018-06-27T03:32:54.828Z,940.00
2018-06-27T03:33:54.895Z,920.00
2018-06-27T03:34:54.839Z,916.00
2018-06-27T03:35:54.871Z,896.00
2018-06-27T03:36:55.375Z,1028.00
2018-06-27T03:37:56.363Z,1232.00
2018-06-27T03:38:57.966Z,1316.00
2018-06-27T03:39:54.946Z,1420.00
2018-06-27T03:40:54.915Z,1596.00
2018-06-27T03:41:54.919Z,1532.00
2018-06-27T03:42:54.943Z,1376.00
2018-06-27T03:43:54.968Z,1252.00
2018-06-27T03:44:54.984Z,1072.00
2018-06-27T03:45:54.980Z,1132.00
2018-06-27T03:46:54.993Z,1180.00
2018-06-27T03:47:55.019Z,1296.00
2018-06-27T03:48:55.040Z,1408.00
2018-06-27T03:49:55.010Z,1552.00
2018-06-27T03:50:55.075Z,1668.00
2018-06-27T03:51:55.065Z,1724.00
2018-06-27T03:52:55.053Z,1952.00
2018-06-27T03:53:55.104Z,1940.00
2018-06-27T03:54:55.078Z,2088.00
2018-06-27T03:55:55.093Z,2108.00
2018-06-27T03:56:55.089Z,2012.00
2018-06-27T03:57:55.119Z,2020.00
2018-06-27T03:58:55.210Z,1792.00
2018-06-27T03:59:55.127Z,1660.00
2018-06-27T04:00:55.134Z,1480.00
2018-06-27T04:01:55.156Z,1648.00
2018-06-27T04:02:55.205Z,1768.00
2018-06-27T04:03:55.170Z,2764.00
2018-06-27T04:04:55.245Z,3536.00
2018-06-27T04:05:55.206Z,3280.00
2018-06-27T04:06:55.209Z,2960.00
2018-06-27T04:07:55.236Z,2472.00
2018-06-27T04:08:55.247Z,2724.00
2018-06-27T04:09:55.273Z,2980.00
2018-06-27T04:10:55.252Z,3168.00
2018-06-27T04:11:55.280Z,3292.00
2018-06-27T04:12:55.424Z,3964.00
2018-06-27T04:13:55.331Z,3908.00
2018-06-27T04:14:55.303Z,4476.00
2018-06-27T04:15:55.311Z,5060.00
2018-06-27T04:16:55.324Z,6180.00
2018-06-27T04:17:55.404Z,7204.00
2018-06-27T04:18:55.392Z,7604.00
2018-06-27T04:19:55.376Z,8008.00
2018-06-27T04:20:55.385Z,7916.00
2018-06-27T04:21:55.429Z,4984.00
2018-06-27T04:22:55.434Z,4812.00
2018-06-27T04:23:55.453Z,4404.00
2018-06-27T04:24:55.549Z,3492.00
2018-06-27T04:25:55.441Z,3388.00
2018-06-27T04:26:55.476Z,4472.00
2018-06-27T04:27:55.458Z,5596.00
2018-06-27T04:28:55.506Z,8076.00
2018-06-27T04:29:55.489Z,10980.00
2018-06-27T04:30:55.503Z,10636.00
2018-06-27T04:31:55.568Z,10360.00
2018-06-27T04:32:55.517Z,10240.00
2018-06-27T04:33:55.538Z,10368.00
2018-06-27T04:34:55.579Z,10064.00
2018-06-27T04:35:55.678Z,10004.00
2018-06-27T04:36:55.570Z,10236.00
2018-06-27T04:37:55.597Z,10208.00
2018-06-27T04:38:55.592Z,10284.00
2018-06-27T04:39:55.656Z,10108.00
2018-06-27T04:40:55.627Z,10244.00
2018-06-27T04:41:55.639Z,9660.00
2018-06-27T04:42:55.643Z,10168.00
2018-06-27T04:43:55.667Z,9988.00
2018-06-27T04:44:55.737Z,9960.00
2018-06-27T04:45:55.688Z,9360.00
2018-06-27T04:46:55.721Z,8992.00
2018-06-27T04:47:55.729Z,8648.00
2018-06-27T04:48:55.725Z,8668.00
2018-06-27T04:49:55.808Z,8780.00
2018-06-27T04:50:55.814Z,8840.00
2018-06-27T04:51:55.787Z,9188.00
2018-06-27T04:52:55.807Z,9380.00
2018-06-27T04:53:55.795Z,9172.00
2018-06-27T04:54:55.953Z,9372.00
2018-06-27T04:55:55.858Z,9220.00
2018-06-27T04:56:55.849Z,9228.00
2018-06-27T04:57:55.871Z,9252.00
2018-06-27T04:58:55.986Z,9252.00
2018-06-27T04:59:55.910Z,9296.00
2018-06-27T05:00:55.895Z,9336.00
2018-06-27T05:01:55.972Z,8980.00
2018-06-27T05:02:55.930Z,8272.00
2018-06-27T05:03:55.949Z,7596.00
2018-06-27T05:04:55.967Z,7268.00
2018-06-27T05:05:56.012Z,7304.00
2018-06-27T05:06:56.041Z,7156.00
2018-06-27T05:07:56.018Z,7704.00
2018-06-27T05:08:56.014Z,7964.00
2018-06-27T05:09:56.041Z,8432.00
2018-06-27T05:10:56.057Z,9064.00
2018-06-27T05:11:56.095Z,9960.00
2018-06-27T05:12:56.144Z,10344.00
2018-06-27T05:13:56.088Z,11232.00
2018-06-27T05:14:56.110Z,11568.00
2018-06-27T05:15:56.118Z,11956.00
2018-06-27T05:16:56.153Z,12704.00
2018-06-27T05:17:56.182Z,13120.00
2018-06-27T05:18:56.191Z,13088.00
2018-06-27T05:19:56.183Z,13172.00
2018-06-27T05:20:56.196Z,13176.00
2018-06-27T05:21:56.203Z,13084.00
2018-06-27T05:22:56.230Z,13312.00
2018-06-27T05:23:56.281Z,13488.00
2018-06-27T05:24:56.249Z,13900.00
2018-06-27T05:25:56.280Z,14120.00
2018-06-27T05:26:56.272Z,14132.00
2018-06-27T05:27:56.322Z,14752.00
2018-06-27T05:28:56.339Z,14880.00
2018-06-27T05:29:56.331Z,14912.00
2018-06-27T05:30:56.348Z,14880.00
2018-06-27T05:31:56.391Z,14752.00
2018-06-27T05:32:56.372Z,14688.00
2018-06-27T05:33:56.493Z,14560.00
2018-06-27T05:34:56.445Z,14252.00
2018-06-27T05:35:56.406Z,14024.00
2018-06-27T05:36:56.425Z,13668.00
2018-06-27T05:37:56.457Z,13432.00
2018-06-27T05:38:56.478Z,12888.00
2018-06-27T05:39:56.576Z,12608.00
2018-06-27T05:40:56.501Z,12204.00
2018-06-27T05:41:56.541Z,11720.00
2018-06-27T05:42:56.552Z,11472.00
2018-06-27T05:43:56.544Z,11100.00
2018-06-27T05:44:56.595Z,10820.00
2018-06-27T05:45:56.680Z,10412.00
2018-06-27T05:46:56.616Z,9632.00
2018-06-27T05:47:56.606Z,8572.00
2018-06-27T05:48:56.634Z,7280.00
2018-06-27T05:49:56.679Z,5952.00
2018-06-27T05:50:56.773Z,4832.00
2018-06-27T05:51:56.713Z,3440.00
2018-06-27T05:52:56.732Z,2364.00
2018-06-27T05:53:56.720Z,1956.00
2018-06-27T05:54:56.745Z,1900.00
2018-06-27T05:55:56.755Z,1880.00
2018-06-27T05:56:56.806Z,1880.00
2018-06-27T05:57:56.784Z,1876.00
2018-06-27T05:58:56.868Z,1876.00
2018-06-27T05:59:56.820Z,1872.00
2018-06-27T06:00:56.847Z,1872.00
2018-06-27T06:01:56.890Z,1948.00
2018-06-27T06:02:56.889Z,1940.00
2018-06-27T06:03:56.889Z,1948.00
2018-06-27T06:04:56.902Z,1936.00
2018-06-27T06:05:56.956Z,1940.00
2018-06-27T06:06:56.969Z,1940.00
2018-06-27T06:07:56.965Z,1948.00
2018-06-27T06:08:56.960Z,1972.00
2018-06-27T06:09:57.022Z,1976.00
2018-06-27T06:10:57.036Z,1984.00
2018-06-27T06:11:57.025Z,1988.00
2018-06-27T06:12:57.031Z,2012.00
2018-06-27T06:13:57.049Z,2044.00
2018-06-27T06:14:57.054Z,2072.00
2018-06-27T06:15:57.156Z,2124.00
2018-06-27T06:16:57.109Z,2200.00
2018-06-27T06:17:57.106Z,2304.00
2018-06-27T06:18:57.126Z,2408.00
2018-06-27T06:19:57.151Z,2500.00
2018-06-27T06:20:57.182Z,2604.00
2018-06-27T06:21:57.148Z,2672.00
2018-06-27T06:22:57.176Z,2660.00
2018-06-27T06:23:57.334Z,2600.00
2018-06-27T06:24:57.186Z,2592.00
2018-06-27T06:25:57.207Z,2824.00
2018-06-27T06:26:57.256Z,3032.00
2018-06-27T06:27:57.303Z,3268.00
2018-06-27T06:28:57.328Z,3532.00
2018-06-27T06:29:57.294Z,3808.00
2018-06-27T06:30:57.277Z,4152.00
2018-06-27T06:31:57.298Z,4524.00
2018-06-27T06:32:57.328Z,4916.00
2018-06-27T06:33:57.342Z,5088.00
2018-06-27T06:34:57.375Z,5084.00
2018-06-27T06:35:57.369Z,4964.00
2018-06-27T06:36:57.358Z,5192.00
2018-06-27T06:37:57.379Z,4964.00
2018-06-27T06:38:57.421Z,5000.00
2018-06-27T06:39:57.409Z,5192.00
2018-06-27T06:40:57.445Z,5368.00
2018-06-27T06:41:57.468Z,6076.00
2018-06-27T06:42:57.450Z,6524.00
2018-06-27T06:43:57.608Z,7860.00
2018-06-27T06:44:57.502Z,7080.00
2018-06-27T06:45:57.535Z,7028.00
2018-06-27T06:46:57.532Z,7904.00
2018-06-27T06:47:57.507Z,6080.00
2018-06-27T06:48:57.536Z,5320.00
2018-06-27T06:49:57.553Z,7008.00
2018-06-27T06:50:57.641Z,4960.00
2018-06-27T06:51:57.561Z,4364.00
2018-06-27T06:52:57.571Z,3968.00
2018-06-27T06:53:57.594Z,2564.00
2018-06-27T06:54:57.607Z,2180.00
2018-06-27T06:55:57.688Z,2440.00
2018-06-27T06:56:57.690Z,1884.00
2018-06-27T06:57:57.664Z,1764.00
2018-06-27T06:58:57.655Z,1720.00
2018-06-27T06:59:57.676Z,1748.00
2018-06-27T07:00:57.730Z,1700.00
2018-06-27T07:01:57.727Z,1732.00
2018-06-27T07:02:57.718Z,1716.00
2018-06-27T07:03:57.740Z,1512.00
2018-06-27T07:04:57.802Z,1680.00
2018-06-27T07:05:57.796Z,1732.00
2018-06-27T07:06:57.770Z,1680.00
2018-06-27T07:07:57.779Z,1744.00
2018-06-27T07:08:57.885Z,1124.00
2018-06-27T07:09:57.824Z,1188.00
2018-06-27T07:10:57.962Z,1680.00
2018-06-27T07:11:57.856Z,1752.00
2018-06-27T07:12:57.867Z,1624.00
2018-06-27T07:13:57.857Z,1280.00
2018-06-27T07:14:57.879Z,1716.00
2018-06-27T07:15:57.951Z,1660.00
2018-06-27T07:16:57.916Z,1680.00
2018-06-27T07:17:57.929Z,1496.00
2018-06-27T07:18:57.945Z,1276.00
2018-06-27T07:19:57.982Z,1308.00
2018-06-27T07:20:58.003Z,1832.00
2018-06-27T07:21:57.986Z,1900.00
2018-06-27T07:22:57.993Z,1356.00
2018-06-27T07:23:58.046Z,1480.00
2018-06-27T07:24:58.027Z,2072.00
2018-06-27T07:25:58.037Z,1656.00
2018-06-27T07:26:58.050Z,1556.00
2018-06-27T07:27:58.053Z,1304.00
2018-06-27T07:28:58.126Z,1384.00
2018-06-27T07:29:58.167Z,1304.00
2018-06-27T07:30:58.104Z,1308.00
2018-06-27T07:31:58.151Z,1404.00
2018-06-27T07:32:58.146Z,1488.00
2018-06-27T07:33:58.141Z,1564.00
2018-06-27T07:34:58.228Z,2004.00
2018-06-27T07:35:58.258Z,1420.00
2018-06-27T07:36:58.185Z,1568.00
2018-06-27T07:37:58.197Z,1984.00
2018-06-27T07:38:58.237Z,1532.00
2018-06-27T07:39:58.296Z,1448.00
2018-06-27T07:40:58.229Z,1516.00
2018-06-27T07:41:58.239Z,1860.00
2018-06-27T07:42:58.267Z,2356.00
2018-06-27T07:43:58.280Z,2444.00
2018-06-27T07:44:58.376Z,2724.00
2018-06-27T07:45:58.354Z,2100.00
2018-06-27T07:46:58.347Z,1708.00
2018-06-27T07:47:58.319Z,1644.00
2018-06-27T07:48:58.336Z,2084.00
2018-06-27T07:49:58.511Z,1952.00
2018-06-27T07:50:58.408Z,1972.00
2018-06-27T07:51:58.427Z,1884.00
2018-06-27T07:52:58.391Z,1728.00
2018-06-27T07:53:58.399Z,1612.00
2018-06-27T07:54:58.419Z,1484.00
2018-06-27T07:55:58.457Z,1592.00
2018-06-27T07:56:58.452Z,1584.00
2018-06-27T07:57:58.465Z,1476.00
2018-06-27T07:58:58.459Z,1236.00
2018-06-27T07:59:58.488Z,1180.00
2018-06-27T08:00:58.584Z,1360.00
2018-06-27T08:01:58.504Z,1352.00
2018-06-27T08:02:58.521Z,1264.00
2018-06-27T08:03:58.543Z,1348.00
2018-06-27T08:04:58.557Z,1340.00
2018-06-27T08:05:58.601Z,1368.00
2018-06-27T08:06:58.742Z,1424.00
2018-06-27T08:07:58.596Z,1288.00
2018-06-27T08:08:58.606Z,1148.00
2018-06-27T08:09:58.621Z,1320.00
2018-06-27T08:10:58.655Z,1276.00
2018-06-27T08:11:58.676Z,1200.00
2018-06-27T08:12:58.726Z,1184.00
2018-06-27T08:13:58.679Z,1108.00
2018-06-27T08:14:58.677Z,1224.00
2018-06-27T08:15:58.710Z,1196.00
2018-06-27T08:16:58.712Z,1296.00
2018-06-27T08:17:58.807Z,1504.00
2018-06-27T08:18:58.749Z,1484.00
2018-06-27T08:19:58.751Z,1292.00
2018-06-27T08:20:58.769Z,1284.00
2018-06-27T08:21:58.765Z,1408.00
2018-06-27T08:22:58.838Z,1676.00
2018-06-27T08:23:58.803Z,1712.00
2018-06-27T08:24:58.820Z,1684.00
2018-06-27T08:25:58.899Z,1676.00
2018-06-27T08:26:59.543Z,1556.00
2018-06-27T08:28:01.561Z,1528.00
2018-06-27T08:28:58.970Z,1544.00
2018-06-27T08:29:58.874Z,1636.00
2018-06-27T08:30:58.900Z,1756.00
2018-06-27T08:31:58.913Z,1784.00
2018-06-27T08:32:58.943Z,1828.00
2018-06-27T08:33:59.030Z,1696.00
2018-06-27T08:34:58.960Z,1852.00
2018-06-27T08:35:58.967Z,1756.00
2018-06-27T08:36:58.981Z,1704.00
2018-06-27T08:37:59.007Z,1632.00
2018-06-27T08:38:59.048Z,1620.00
2018-06-27T08:39:59.070Z,1616.00
2018-06-27T08:40:59.018Z,1604.00
2018-06-27T08:41:59.060Z,1560.00
2018-06-27T08:42:59.067Z,1464.00
2018-06-27T08:43:59.071Z,1584.00
2018-06-27T08:44:59.159Z,1540.00
2018-06-27T08:45:59.127Z,1552.00
2018-06-27T08:46:59.126Z,1696.00
2018-06-27T08:47:59.119Z,1560.00
2018-06-27T08:48:59.224Z,1520.00
2018-06-27T08:49:59.227Z,1644.00
2018-06-27T08:50:59.158Z,1792.00
2018-06-27T08:51:59.178Z,1880.00
2018-06-27T08:52:59.206Z,2108.00
2018-06-27T08:53:59.237Z,2144.00
2018-06-27T08:54:59.267Z,2132.00
2018-06-27T08:55:59.339Z,1948.00
2018-06-27T08:56:59.237Z,1960.00
2018-06-27T08:57:59.258Z,2120.00
2018-06-27T08:58:59.267Z,2044.00
2018-06-27T08:59:59.329Z,1996.00
2018-06-27T09:00:59.320Z,1788.00
2018-06-27T09:01:59.311Z,1956.00
2018-06-27T09:02:59.328Z,1824.00
2018-06-27T09:03:59.348Z,1860.00
2018-06-27T09:04:59.357Z,1768.00
2018-06-27T09:05:59.396Z,1720.00
2018-06-27T09:06:59.412Z,1688.00
2018-06-27T09:07:59.384Z,1720.00
2018-06-27T09:08:59.418Z,1864.00
2018-06-27T09:09:59.412Z,1976.00
2018-06-27T09:10:59.455Z,2172.00
2018-06-27T09:11:59.493Z,2260.00
2018-06-27T09:12:59.464Z,2300.00
2018-06-27T09:13:59.481Z,2632.00
2018-06-27T09:14:59.567Z,2180.00
2018-06-27T09:15:59.519Z,2132.00
2018-06-27T09:16:59.524Z,2124.00
2018-06-27T09:17:59.524Z,2016.00
2018-06-27T09:18:59.555Z,1832.00
2018-06-27T09:19:59.554Z,1972.00
2018-06-27T09:20:59.727Z,1992.00
2018-06-27T09:21:59.615Z,2152.00
2018-06-27T09:22:59.593Z,2216.00
2018-06-27T09:23:59.618Z,2116.00
2018-06-27T09:24:59.631Z,2004.00
2018-06-27T09:25:59.649Z,2008.00
2018-06-27T09:26:59.672Z,1984.00
2018-06-27T09:27:59.697Z,2004.00
2018-06-27T09:28:59.671Z,2032.00
2018-06-27T09:29:59.708Z,2044.00
2018-06-27T09:30:59.698Z,2108.00
2018-06-27T09:31:59.707Z,2372.00
2018-06-27T09:32:59.770Z,2368.00
2018-06-27T09:33:59.799Z,2392.00
2018-06-27T09:34:59.764Z,2340.00
2018-06-27T09:35:59.785Z,2264.00
2018-06-27T09:36:59.816Z,2184.00
2018-06-27T09:37:59.799Z,1992.00
2018-06-27T09:38:59.844Z,1992.00
2018-06-27T09:39:59.839Z,2140.00
2018-06-27T09:40:59.888Z,2192.00
2018-06-27T09:41:59.877Z,2308.00
2018-06-27T09:42:59.857Z,2132.00
2018-06-27T09:43:59.939Z,2228.00
2018-06-27T09:44:59.924Z,2380.00
2018-06-27T09:45:59.914Z,2372.00
2018-06-27T09:46:59.923Z,2388.00
2018-06-27T09:47:59.922Z,2328.00
2018-06-27T09:48:59.995Z,2108.00
2018-06-27T09:49:59.986Z,2184.00
2018-06-27T09:50:59.965Z,2208.00
2018-06-27T09:52:00.000Z,2036.00
2018-06-27T09:53:00.028Z,1964.00
2018-06-27T09:54:00.049Z,1840.00
2018-06-27T09:55:00.064Z,1920.00
2018-06-27T09:56:00.082Z,2092.00
2018-06-27T09:57:00.100Z,2124.00
2018-06-27T09:58:00.069Z,2204.00
2018-06-27T09:59:00.092Z,2200.00
2018-06-27T10:00:00.111Z,2132.00
2018-06-27T10:01:00.174Z,2252.00
2018-06-27T10:02:00.131Z,1972.00
2018-06-27T10:03:00.141Z,1996.00
2018-06-27T10:04:00.142Z,2088.00
2018-06-27T10:05:00.175Z,2004.00
2018-06-27T10:06:00.227Z,2024.00
2018-06-27T10:07:00.199Z,1868.00
2018-06-27T10:08:00.210Z,1788.00
2018-06-27T10:09:00.231Z,1532.00
2018-06-27T10:10:00.260Z,1532.00
2018-06-27T10:11:00.288Z,1572.00
2018-06-27T10:12:00.301Z,1636.00
2018-06-27T10:13:00.268Z,1676.00
2018-06-27T10:14:00.295Z,1840.00
2018-06-27T10:15:00.364Z,1972.00
2018-06-27T10:16:00.327Z,1944.00
2018-06-27T10:17:00.439Z,1864.00
2018-06-27T10:18:00.361Z,1900.00
2018-06-27T10:19:00.361Z,1904.00
2018-06-27T10:20:00.377Z,2108.00
2018-06-27T10:21:00.395Z,2092.00
2018-06-27T10:22:00.471Z,2080.00
2018-06-27T10:23:00.418Z,2112.00
2018-06-27T10:24:00.461Z,2196.00
2018-06-27T10:25:00.446Z,2052.00
2018-06-27T10:26:00.470Z,1748.00
2018-06-27T10:27:00.504Z,1812.00
2018-06-27T10:28:00.549Z,1736.00
2018-06-27T10:29:00.504Z,1600.00
2018-06-27T10:30:00.520Z,1712.00
2018-06-27T10:31:00.567Z,1584.00
2018-06-27T10:32:00.580Z,1624.00
2018-06-27T10:33:00.620Z,1492.00
2018-06-27T10:34:00.593Z,1392.00
2018-06-27T10:35:00.592Z,1392.00
2018-06-27T10:36:00.614Z,1372.00
2018-06-27T10:37:00.602Z,1448.00
2018-06-27T10:38:00.668Z,1500.00
2018-06-27T10:39:00.666Z,1596.00
2018-06-27T10:40:00.672Z,1504.00
2018-06-27T10:41:00.727Z,1492.00
2018-06-27T10:42:00.731Z,1588.00
2018-06-27T10:43:00.727Z,1604.00
2018-06-27T10:44:00.714Z,1656.00
2018-06-27T10:45:00.713Z,1580.00
2018-06-27T10:46:00.736Z,1572.00
2018-06-27T10:47:00.748Z,1576.00
2018-06-27T10:48:00.812Z,1560.00
2018-06-27T10:49:00.779Z,1648.00
2018-06-27T10:50:00.788Z,1512.00
2018-06-27T10:51:00.854Z,1728.00
2018-06-27T10:52:00.851Z,1800.00
2018-06-27T10:53:00.863Z,1752.00
2018-06-27T10:54:00.852Z,1732.00
2018-06-27T10:55:00.928Z,1544.00
2018-06-27T10:56:00.871Z,1564.00
2018-06-27T10:57:00.892Z,1540.00
2018-06-27T10:58:00.920Z,1572.00
2018-06-27T10:59:00.977Z,1616.00
2018-06-27T11:00:00.943Z,1604.00
2018-06-27T11:01:00.949Z,1500.00
2018-06-27T11:02:00.966Z,1440.00
2018-06-27T11:03:00.984Z,1408.00
2018-06-27T11:04:01.041Z,1732.00
2018-06-27T11:05:01.056Z,1728.00
2018-06-27T11:06:01.018Z,1744.00
2018-06-27T11:07:01.021Z,1712.00
2018-06-27T11:08:01.056Z,1820.00
2018-06-27T11:09:01.074Z,1740.00
2018-06-27T11:10:01.125Z,1640.00
2018-06-27T11:11:01.098Z,1612.00
2018-06-27T11:12:01.127Z,1752.00
2018-06-27T11:13:01.143Z,2032.00
2018-06-27T11:14:01.160Z,2172.00
2018-06-27T11:15:01.171Z,2304.00
2018-06-27T11:16:01.149Z,2312.00
2018-06-27T11:17:01.169Z,2316.00
2018-06-27T11:18:01.183Z,1992.00
2018-06-27T11:19:01.196Z,1884.00
2018-06-27T11:20:01.250Z,1884.00
2018-06-27T11:21:01.242Z,1936.00
2018-06-27T11:22:01.234Z,1840.00
2018-06-27T11:23:01.249Z,1748.00
2018-06-27T11:24:01.280Z,1720.00
2018-06-27T11:25:01.336Z,1796.00
2018-06-27T11:26:01.294Z,1688.00
2018-06-27T11:27:01.313Z,1628.00
2018-06-27T11:28:01.330Z,1556.00
2018-06-27T11:29:01.345Z,1452.00
2018-06-27T11:30:01.418Z,1412.00
2018-06-27T11:31:01.388Z,1460.00
2018-06-27T11:32:01.387Z,1688.00
2018-06-27T11:33:01.410Z,1724.00
2018-06-27T11:34:01.408Z,1676.00
2018-06-27T11:35:01.465Z,1564.00
2018-06-27T11:36:01.469Z,1484.00
2018-06-27T11:37:01.447Z,1392.00
2018-06-27T11:38:01.531Z,1376.00
2018-06-27T11:39:01.494Z,1332.00
2018-06-27T11:40:01.486Z,1264.00
2018-06-27T11:41:01.502Z,1264.00
2018-06-27T11:42:01.525Z,1304.00
2018-06-27T11:43:01.593Z,1416.00
2018-06-27T11:44:01.556Z,1404.00
2018-06-27T11:45:02.594Z,1428.00
2018-06-27T11:46:01.572Z,1500.00
2018-06-27T11:47:01.641Z,1476.00
2018-06-27T11:48:01.662Z,1504.00
2018-06-27T11:49:01.625Z,1496.00
2018-06-27T11:50:01.636Z,1504.00
2018-06-27T11:51:01.678Z,1508.00
2018-06-27T11:52:01.688Z,1556.00
2018-06-27T11:53:01.731Z,1596.00
2018-06-27T11:54:01.702Z,1512.00
2018-06-27T11:55:01.807Z,1588.00
2018-06-27T11:56:01.761Z,1608.00
2018-06-27T11:57:01.737Z,1660.00
2018-06-27T11:58:01.773Z,1656.00
2018-06-27T11:59:01.772Z,1676.00
2018-06-27T12:00:01.787Z,1600.00
2018-06-27T12:01:01.836Z,1680.00
2018-06-27T12:02:01.816Z,1792.00
2018-06-27T12:03:01.831Z,1896.00
2018-06-27T12:04:01.838Z,1960.00
2018-06-27T12:05:01.860Z,1916.00
2018-06-27T12:06:01.905Z,1776.00
2018-06-27T12:07:01.877Z,1668.00
2018-06-27T12:08:01.898Z,1576.00
2018-06-27T12:09:01.978Z,1592.00
2018-06-27T12:10:01.918Z,1584.00
2018-06-27T12:11:01.988Z,1524.00
2018-06-27T12:12:01.970Z,1528.00
2018-06-27T12:13:01.976Z,1472.00
2018-06-27T12:14:02.030Z,1440.00
2018-06-27T12:15:01.997Z,1500.00
2018-06-27T12:16:02.026Z,1516.00
2018-06-27T12:17:02.210Z,1568.00
2018-06-27T12:18:02.079Z,1588.00
2018-06-27T12:19:02.048Z,1616.00
2018-06-27T12:20:02.110Z,1708.00
2018-06-27T12:21:02.122Z,1728.00